Time;durP1;ratioP1;P1;durP2;ratioP2;P2;SDS_P1;SDS_P2;PMS_P1;PMS_P2;Temp;Humidity;BMP_temperature;BMP_pressure;BME280_temperature;BME280_humidity;BME280_pressure;Samples;Min_cycle;Max_cycle;Signal;HPM_P1;HPM_P2
2021/08/01 00:00:27;;;;;;;;;;;;;;;22.74;61.07;100384.59;465468;113;921429;-69
2021/08/01 00:01:30;;;;;;;;;;;;;;;22.70;61.16;100389.08;466316;112;922521;-69
2021/08/01 00:02:34;;;;;;;;;;;;;;;22.66;61.25;100388.83;461721;113;922709;-68
2021/08/01 00:03:38;;;;;;;;;;;;;;;22.64;61.32;100387.49;463253;113;921516;-68
2021/08/01 00:04:43;;;;;;;;;;;;;;;22.62;61.37;100392.52;462493;112;921557;-69
2021/08/01 00:05:46;;;;;;;;;;;;;;;22.62;61.44;100400.85;462436;114;922639;-71
2021/08/01 00:06:49;;;;;;;;;;;;;;;22.63;61.43;100391.39;463271;113;922716;-69
2021/08/01 00:07:53;;;;;;;;;;;;;;;22.62;61.49;100396.13;463079;114;922720;-71
2021/08/01 00:08:56;;;;;;;;;;;;;;;22.64;61.45;100384.72;463551;112;922631;-70
2021/08/01 00:10:00;;;;;;;;;;;;;;;22.66;61.39;100390.81;464324;114;922872;-70
2021/08/01 00:11:03;;;;;;;;;;;;;;;22.67;61.34;100386.88;462670;112;922549;-70
2021/08/01 00:12:07;;;;;;;;;;;;;;;22.67;61.29;100384.93;462988;113;922691;-69
2021/08/01 00:13:10;;;;;;;;;;;;;;;22.69;61.25;100388.25;464593;112;922664;-71
2021/08/01 00:14:13;;;;;;;;;;;;;;;22.70;61.26;100391.86;463396;112;922791;-70
2021/08/01 00:15:16;;;;;;;;;;;;;;;22.69;61.23;100385.47;463408;114;923131;-70
2021/08/01 00:16:22;;;;;;;;;;;;;;;22.71;61.22;100393.52;464132;113;921808;-70
2021/08/01 00:17:26;;;;;;;;;;;;;;;22.72;61.25;100393.22;464474;112;922614;-70
2021/08/01 00:18:29;;;;;;;;;;;;;;;22.72;61.27;100389.62;465107;112;922570;-69
2021/08/01 00:19:33;;;;;;;;;;;;;;;22.72;61.22;100392.39;465042;112;922716;-70
2021/08/01 00:20:37;;;;;;;;;;;;;;;22.72;61.03;100393.22;464018;113;922648;-68
2021/08/01 00:21:40;;;;;;;;;;;;;;;22.71;60.96;100388.81;465363;112;923215;-69
2021/08/01 00:22:43;;;;;;;;;;;;;;;22.70;60.98;100386.30;465419;112;923157;-70
2021/08/01 00:23:46;;;;;;;;;;;;;;;22.70;61.03;100389.08;464943;113;924251;-70
2021/08/01 00:24:50;;;;;;;;;;;;;;;22.68;61.08;100386.59;464012;112;922473;-71
2021/08/01 00:25:53;;;;;;;;;;;;;;;22.67;61.14;100384.93;460854;112;922649;-70
2021/08/01 00:26:56;;;;;;;;;;;;;;;22.66;61.19;100391.61;462975;114;922709;-70
2021/08/01 00:28:00;;;;;;;;;;;;;;;22.65;61.27;100387.20;464713;112;922613;-72
2021/08/01 00:29:03;;;;;;;;;;;;;;;22.64;61.30;100388.32;463396;113;923247;-69
2021/08/01 00:30:08;;;;;;;;;;;;;;;22.64;61.30;100393.88;463774;114;922734;-70
2021/08/01 00:31:11;;;;;;;;;;;;;;;22.63;61.30;100388.61;463279;114;923297;-71
2021/08/01 00:32:15;;;;;;;;;;;;;;;22.63;61.36;100394.17;463257;113;922660;-71
2021/08/01 00:33:18;;;;;;;;;;;;;;;22.62;61.34;100386.95;464505;112;923267;-70
2021/08/01 00:34:21;;;;;;;;;;;;;;;22.60;61.40;100387.28;464830;111;922754;-70
2021/08/01 00:35:24;;;;;;;;;;;;;;;22.60;61.46;100395.61;462003;112;923669;-70
2021/08/01 00:36:28;;;;;;;;;;;;;;;22.59;61.47;100393.95;461412;113;923141;-70
2021/08/01 00:37:31;;;;;;;;;;;;;;;22.58;61.51;100391.47;461174;113;922718;-70
2021/08/01 00:38:34;;;;;;;;;;;;;;;22.57;61.48;100389.80;462209;112;923379;-70
2021/08/01 00:39:37;;;;;;;;;;;;;;;22.56;61.47;100391.76;461381;112;923064;-69
2021/08/01 00:40:41;;;;;;;;;;;;;;;22.56;61.45;100400.09;461188;112;923145;-69
2021/08/01 00:41:44;;;;;;;;;;;;;;;22.56;61.46;100391.76;460915;113;922524;-70
2021/08/01 00:42:47;;;;;;;;;;;;;;;22.53;61.51;100399.87;463707;114;922635;-68
2021/08/01 00:43:51;;;;;;;;;;;;;;;22.50;61.57;100389.34;462231;112;923149;-68
2021/08/01 00:44:54;;;;;;;;;;;;;;;22.46;61.68;100394.67;462739;113;922622;-68
2021/08/01 00:45:58;;;;;;;;;;;;;;;22.43;61.78;100396.11;462957;112;923125;-68
2021/08/01 00:47:01;;;;;;;;;;;;;;;22.41;61.83;100397.52;461301;114;921558;-68
2021/08/01 00:48:06;;;;;;;;;;;;;;;22.40;61.88;100396.70;461084;112;921507;-68
2021/08/01 00:49:10;;;;;;;;;;;;;;;22.40;61.86;100393.09;460087;112;923045;-68
2021/08/01 00:50:15;;;;;;;;;;;;;;;22.39;61.77;100395.03;461718;112;924930;-70
2021/08/01 00:51:20;;;;;;;;;;;;;;;22.40;61.73;100398.64;460453;114;922696;-70
2021/08/01 00:52:23;;;;;;;;;;;;;;;22.39;61.65;100396.98;462190;112;923186;-70
2021/08/01 00:53:34;;;;;;;;;;;;;;;22.39;61.59;100396.98;460571;114;922997;-70
2021/08/01 00:54:37;;;;;;;;;;;;;;;22.38;61.59;100393.37;478401;111;923156;-69
2021/08/01 00:55:41;;;;;;;;;;;;;;;22.37;61.58;100400.08;473274;112;921630;-70
2021/08/01 00:56:45;;;;;;;;;;;;;;;22.38;61.54;100393.37;470662;111;922690;-70
2021/08/01 00:57:49;;;;;;;;;;;;;;;22.37;61.49;100399.25;469468;111;922790;-70
2021/08/01 00:58:52;;;;;;;;;;;;;;;22.38;61.47;100395.36;465987;111;922543;-70
2021/08/01 00:59:56;;;;;;;;;;;;;;;22.37;61.45;100400.08;457712;115;921448;-70
2021/08/01 01:01:08;;;;;;;;;;;;;;;22.37;61.45;100400.08;458619;113;922743;-68
2021/08/01 01:02:14;;;;;;;;;;;;;;;22.37;61.36;100397.30;456963;115;922652;-69
2021/08/01 01:03:20;;;;;;;;;;;;;;;22.37;61.31;100388.14;458199;113;923138;-69
2021/08/01 01:04:29;;;;;;;;;;;;;;;22.38;61.27;100398.13;453633;115;922693;-68
2021/08/01 01:05:34;;;;;;;;;;;;;;;22.37;61.23;100397.30;455586;114;922686;-68
2021/08/01 01:06:46;;;;;;;;;;;;;;;22.37;61.19;100397.30;458581;113;923161;-69
2021/08/01 01:08:00;;;;;;;;;;;;;;;22.37;61.15;100390.92;457361;113;923086;-69
2021/08/01 01:09:27;;;;;;;;;;;;;;;22.37;61.12;100397.30;459193;114;921453;-70
2021/08/01 01:10:37;;;;;;;;;;;;;;;22.37;61.05;100402.03;456225;112;921642;-69
2021/08/01 01:11:47;;;;;;;;;;;;;;;22.37;61.05;100402.03;461998;112;922735;-70
2021/08/01 01:13:00;;;;;;;;;;;;;;;22.35;61.06;100407.05;453250;115;921511;-70
2021/08/01 01:14:03;;;;;;;;;;;;;;;22.33;61.15;100407.33;443860;113;922779;-68
2021/08/01 01:15:11;;;;;;;;;;;;;;;22.29;61.21;100406.28;461860;112;923140;-70
2021/08/01 01:16:13;;;;;;;;;;;;;;;22.27;61.25;100414.10;446803;117;923652;-70
2021/08/01 01:17:22;;;;;;;;;;;;;;;22.26;61.28;100408.84;453591;114;921534;-69
2021/08/01 01:18:27;;;;;;;;;;;;;;;22.25;61.29;100410.78;451569;113;922711;-69
2021/08/01 01:19:47;;;;;;;;;;;;;;;22.25;61.27;100412.73;452505;114;921694;-69
2021/08/01 01:21:03;;;;;;;;;;;;;;;22.22;61.35;100405.00;447872;114;921551;-69
2021/08/01 01:22:10;;;;;;;;;;;;;;;22.19;61.43;100413.91;444770;116;923095;-69
2021/08/01 01:23:18;;;;;;;;;;;;;;;22.17;61.48;100402.26;444870;117;921467;-70
2021/08/01 01:24:41;;;;;;;;;;;;;;;22.14;61.57;100402.86;457627;113;921414;-70
2021/08/01 01:25:48;;;;;;;;;;;;;;;22.09;61.68;100400.98;454924;113;921420;-70
2021/08/01 01:26:53;;;;;;;;;;;;;;;22.05;61.76;100411.03;456395;114;921864;-69
2021/08/01 01:27:58;;;;;;;;;;;;;;;22.00;61.89;100405.50;459020;112;921449;-69
2021/08/01 01:29:13;;;;;;;;;;;;;;;21.97;62.05;100408.89;452566;114;921578;-69
2021/08/01 01:30:16;;;;;;;;;;;;;;;21.94;62.27;100406.68;459742;112;921457;-69
2021/08/01 01:31:23;;;;;;;;;;;;;;;21.93;62.43;100410.57;452671;114;921593;-69
2021/08/01 01:32:28;;;;;;;;;;;;;;;21.93;62.52;100411.41;454000;115;921455;-69
2021/08/01 01:33:33;;;;;;;;;;;;;;;21.95;62.56;100419.45;459696;112;921484;-69
2021/08/01 01:34:38;;;;;;;;;;;;;;;21.96;62.56;100412.78;452638;114;922023;-69
2021/08/01 01:35:43;;;;;;;;;;;;;;;21.96;62.53;100421.94;455944;114;921588;-69
2021/08/01 01:36:48;;;;;;;;;;;;;;;21.96;62.53;100421.94;463030;112;921501;-69
2021/08/01 01:37:52;;;;;;;;;;;;;;;21.95;62.57;100423.05;460026;114;921571;-69
2021/08/01 01:39:09;;;;;;;;;;;;;;;21.93;62.68;100416.95;459384;114;921467;-70
2021/08/01 01:40:15;;;;;;;;;;;;;;;21.90;62.79;100422.25;459348;113;921869;-69
2021/08/01 01:41:21;;;;;;;;;;;;;;;21.88;62.94;100427.28;458740;113;922724;-69
2021/08/01 01:42:27;;;;;;;;;;;;;;;21.85;63.06;100422.30;458417;115;922703;-69
2021/08/01 01:43:33;;;;;;;;;;;;;;;21.83;63.12;100424.56;460093;113;922611;-69
2021/08/01 01:44:37;;;;;;;;;;;;;;;21.80;63.17;100427.91;456561;113;922600;-70
2021/08/01 01:45:40;;;;;;;;;;;;;;;21.75;63.26;100414.91;458124;113;922607;-70
2021/08/01 01:46:45;;;;;;;;;;;;;;;21.73;63.36;100431.02;458215;114;922694;-70
2021/08/01 01:47:56;;;;;;;;;;;;;;;21.72;63.50;100432.16;456863;113;922659;-70
2021/08/01 01:49:00;;;;;;;;;;;;;;;21.73;63.57;100433.80;449212;117;923623;-69
2021/08/01 01:50:05;;;;;;;;;;;;;;;21.74;63.57;100429.08;448265;117;921604;-69
2021/08/01 01:51:09;;;;;;;;;;;;;;;21.75;63.57;100431.56;448632;117;923148;-72
2021/08/01 01:52:13;;;;;;;;;;;;;;;21.76;63.48;100437.95;448701;117;922640;-70
2021/08/01 01:53:20;;;;;;;;;;;;;;;21.79;63.39;100435.41;444046;116;922719;-70
2021/08/01 01:54:24;;;;;;;;;;;;;;;21.80;63.25;100436.23;441472;117;922742;-71
2021/08/01 01:55:29;;;;;;;;;;;;;;;21.82;63.14;100431.23;444461;117;922764;-71
2021/08/01 01:56:35;;;;;;;;;;;;;;;21.84;62.91;100437.30;444838;117;922752;-69
2021/08/01 01:57:41;;;;;;;;;;;;;;;21.85;62.70;100433.41;445500;117;922710;-70
2021/08/01 01:58:44;;;;;;;;;;;;;;;21.86;62.50;100438.67;445779;117;922657;-71
2021/08/01 01:59:48;;;;;;;;;;;;;;;21.88;62.38;100438.39;446306;117;922648;-71
2021/08/01 02:00:52;;;;;;;;;;;;;;;21.87;62.30;100434.78;445469;117;922654;-67
2021/08/01 02:01:55;;;;;;;;;;;;;;;21.86;62.30;100435.06;444030;117;922838;-69
2021/08/01 02:02:59;;;;;;;;;;;;;;;21.83;62.17;100444.80;445639;117;923981;-70
2021/08/01 02:04:05;;;;;;;;;;;;;;;21.79;62.00;100445.67;448612;116;922770;-69
2021/08/01 02:05:27;;;;;;;;;;;;;;;21.73;61.88;100447.67;446688;117;922656;-70
2021/08/01 02:06:49;;;;;;;;;;;;;;;21.67;61.89;100439.70;446707;117;921687;-69
2021/08/01 02:08:03;;;;;;;;;;;;;;;21.60;61.88;100449.20;445978;117;921800;-69
2021/08/01 02:09:25;;;;;;;;;;;;;;;21.54;61.98;100441.20;443105;118;921809;-70
2021/08/01 02:10:34;;;;;;;;;;;;;;;21.49;62.02;100444.02;446527;117;921510;-70
2021/08/01 02:11:41;;;;;;;;;;;;;;;21.44;62.16;100442.12;447930;117;922059;-69
2021/08/01 02:12:48;;;;;;;;;;;;;;;21.42;62.20;100447.13;449303;116;921565;-70
2021/08/01 02:13:54;;;;;;;;;;;;;;;21.41;62.27;100444.63;445628;117;921656;-70
2021/08/01 02:15:16;;;;;;;;;;;;;;;21.39;62.34;100442.13;451802;116;921615;-70
2021/08/01 02:16:21;;;;;;;;;;;;;;;21.39;62.43;100441.34;449441;116;921521;-70
2021/08/01 02:17:28;;;;;;;;;;;;;;;21.39;62.53;100444.11;444274;117;921423;-70
2021/08/01 02:18:36;;;;;;;;;;;;;;;21.39;62.65;100436.59;452638;116;921599;-68
2021/08/01 02:19:41;;;;;;;;;;;;;;;21.41;62.63;100442.69;451928;116;921543;-69
2021/08/01 02:20:48;;;;;;;;;;;;;;;21.43;62.58;100436.86;447004;117;921569;-69
2021/08/01 02:21:56;;;;;;;;;;;;;;;21.45;62.54;100440.98;446969;117;921616;-70
2021/08/01 02:23:00;;;;;;;;;;;;;;;21.47;62.46;100444.30;444092;117;921555;-69
2021/08/01 02:24:03;;;;;;;;;;;;;;;21.48;62.47;100439.59;453313;116;921716;-69
2021/08/01 02:25:10;;;;;;;;;;;;;;;21.49;62.43;100439.30;448531;116;922709;-70
2021/08/01 02:26:16;;;;;;;;;;;;;;;21.52;62.42;100444.25;441830;118;923190;-69
2021/08/01 02:27:21;;;;;;;;;;;;;;;21.53;62.41;100445.09;441739;118;922607;-69
2021/08/01 02:28:26;;;;;;;;;;;;;;;21.53;62.42;100448.70;441746;118;925275;-69
2021/08/01 02:29:31;;;;;;;;;;;;;;;21.53;62.44;100448.70;449762;116;923667;-68
2021/08/01 02:30:36;;;;;;;;;;;;;;;21.54;62.50;100452.30;450218;116;922585;-70
2021/08/01 02:31:42;;;;;;;;;;;;;;;21.55;62.58;100452.02;450735;116;922690;-68
2021/08/01 02:32:47;;;;;;;;;;;;;;;21.56;62.72;100452.81;451624;116;922457;-69
2021/08/01 02:33:52;;;;;;;;;;;;;;;21.58;62.76;100448.64;449341;116;922667;-67
2021/08/01 02:34:57;;;;;;;;;;;;;;;21.61;62.82;100452.80;447351;116;923344;-68
2021/08/01 02:36:02;;;;;;;;;;;;;;;21.63;62.86;100458.87;449060;116;922603;-68
2021/08/01 02:37:07;;;;;;;;;;;;;;;21.63;62.88;100453.31;443478;117;922959;-68
2021/08/01 02:38:12;;;;;;;;;;;;;;;21.65;62.90;100453.87;443114;117;922649;-68
2021/08/01 02:39:16;;;;;;;;;;;;;;;21.66;62.90;100452.75;443983;117;922656;-68
2021/08/01 02:40:20;;;;;;;;;;;;;;;21.67;62.89;100451.61;441742;119;922685;-69
2021/08/01 02:41:29;;;;;;;;;;;;;;;21.68;62.90;100453.27;445513;117;922704;-68
2021/08/01 02:42:32;;;;;;;;;;;;;;;21.68;62.91;100447.72;445745;117;922640;-68
2021/08/01 02:43:36;;;;;;;;;;;;;;;21.69;62.93;100449.38;446162;117;922433;-68
2021/08/01 02:44:40;;;;;;;;;;;;;;;21.71;62.92;100451.88;445894;117;922678;-69
2021/08/01 02:45:44;;;;;;;;;;;;;;;21.71;62.92;100451.88;448336;117;923199;-68
2021/08/01 02:46:48;;;;;;;;;;;;;;;21.71;62.98;100454.65;446191;117;921581;-68
2021/08/01 02:47:52;;;;;;;;;;;;;;;21.71;63.03;100454.65;446198;117;921555;-69
2021/08/01 02:48:56;;;;;;;;;;;;;;;21.68;63.02;100461.59;447046;116;923729;-69
2021/08/01 02:50:01;;;;;;;;;;;;;;;21.66;63.01;100466.63;449664;116;922704;-68
2021/08/01 02:51:05;;;;;;;;;;;;;;;21.61;63.03;100467.47;454844;116;922656;-69
2021/08/01 02:52:12;;;;;;;;;;;;;;;21.57;63.12;100463.63;455083;116;923145;-69
2021/08/01 02:53:17;;;;;;;;;;;;;;;21.55;63.32;100463.11;449392;116;922603;-69
2021/08/01 02:54:22;;;;;;;;;;;;;;;21.55;63.41;100462.28;449877;117;922715;-68
2021/08/01 02:55:27;;;;;;;;;;;;;;;21.56;63.36;100466.69;450090;116;922576;-69
2021/08/01 02:56:32;;;;;;;;;;;;;;;21.56;63.39;100467.52;445649;116;922737;-70
2021/08/01 02:57:39;;;;;;;;;;;;;;;21.56;63.33;100473.07;449319;116;921546;-68
2021/08/01 02:58:43;;;;;;;;;;;;;;;21.57;63.36;100471.13;446278;116;922599;-67
2021/08/01 02:59:48;;;;;;;;;;;;;;;21.59;63.34;100474.45;446451;116;921605;-70
2021/08/01 03:00:53;;;;;;;;;;;;;;;21.59;63.33;100469.73;448532;116;921673;-70
2021/08/01 03:01:58;;;;;;;;;;;;;;;21.62;63.28;100471.08;448577;116;921645;-70
2021/08/01 03:03:04;;;;;;;;;;;;;;;21.63;63.22;100473.58;448702;116;921475;-69
2021/08/01 03:04:08;;;;;;;;;;;;;;;21.67;63.12;100475.78;450787;115;921565;-69
2021/08/01 03:05:12;;;;;;;;;;;;;;;21.68;63.08;100469.09;446410;117;921324;-69
2021/08/01 03:06:17;;;;;;;;;;;;;;;21.70;63.03;100478.80;444117;118;921730;-70
2021/08/01 03:07:21;;;;;;;;;;;;;;;21.72;63.04;100465.47;436797;120;921544;-69
2021/08/01 03:08:25;;;;;;;;;;;;;;;21.74;63.02;100476.25;451056;116;921521;-69
2021/08/01 03:09:28;;;;;;;;;;;;;;;21.77;63.07;100467.36;455094;115;922699;-72
2021/08/01 03:10:32;;;;;;;;;;;;;;;21.78;63.04;100464.27;448476;116;921612;-73
2021/08/01 03:11:36;;;;;;;;;;;;;;;21.79;63.11;100473.43;455282;115;921570;-72
2021/08/01 03:12:43;;;;;;;;;;;;;;;21.79;63.18;100465.94;456089;115;921848;-73
2021/08/01 03:13:47;;;;;;;;;;;;;;;21.80;63.10;100470.38;450469;116;922629;-72
2021/08/01 03:14:51;;;;;;;;;;;;;;;21.83;63.03;100471.75;451217;116;922501;-72
2021/08/01 03:15:55;;;;;;;;;;;;;;;21.83;62.97;100483.66;450763;116;922664;-69
2021/08/01 03:16:59;;;;;;;;;;;;;;;21.85;62.91;100477.81;450706;116;922673;-71
2021/08/01 03:18:02;;;;;;;;;;;;;;;21.87;62.92;100476.42;445667;116;923118;-72
2021/08/01 03:19:06;;;;;;;;;;;;;;;21.89;62.84;100476.11;435540;118;923443;-72
2021/08/01 03:20:12;;;;;;;;;;;;;;;21.91;62.85;100476.66;448251;117;922624;-72
2021/08/01 03:21:17;;;;;;;;;;;;;;;21.91;62.78;100469.16;444733;117;922781;-73
2021/08/01 03:22:26;;;;;;;;;;;;;;;21.95;62.80;100477.75;442012;119;922695;-71
2021/08/01 03:23:30;;;;;;;;;;;;;;;21.97;62.85;100472.74;447385;115;922660;-71
2021/08/01 03:24:52;;;;;;;;;;;;;;;21.96;62.89;100466.36;445810;116;922738;-72
2021/08/01 03:25:56;;;;;;;;;;;;;;;21.96;62.98;100473.86;451667;115;923984;-72
2021/08/01 03:27:00;;;;;;;;;;;;;;;21.94;63.03;100476.91;449392;117;922705;-73
2021/08/01 03:28:04;;;;;;;;;;;;;;;21.94;63.05;100476.09;450879;115;922678;-72
2021/08/01 03:29:07;;;;;;;;;;;;;;;21.92;63.08;100481.09;450558;115;922646;-70
2021/08/01 03:30:11;;;;;;;;;;;;;;;21.91;63.04;100482.20;450860;115;923140;-72
2021/08/01 03:31:15;;;;;;;;;;;;;;;21.90;63.10;100481.37;452089;115;922628;-72
2021/08/01 03:32:23;;;;;;;;;;;;;;;21.89;63.18;100485.27;451477;115;922556;-70
2021/08/01 03:33:29;;;;;;;;;;;;;;;21.89;63.25;100484.44;452639;115;921589;-74
2021/08/01 03:34:34;;;;;;;;;;;;;;;21.88;63.33;100486.41;451647;115;922773;-72
2021/08/01 03:35:38;;;;;;;;;;;;;;;21.88;63.37;100485.58;452640;117;922709;-72
2021/08/01 03:36:52;;;;;;;;;;;;;;;21.87;63.38;100487.52;452794;116;921492;-71
2021/08/01 03:37:58;;;;;;;;;;;;;;;21.88;63.41;100485.58;452324;115;922668;-74
2021/08/01 03:39:22;;;;;;;;;;;;;;;21.89;63.39;100482.48;427724;123;923335;-72
2021/08/01 03:40:30;;;;;;;;;;;;;;;21.93;63.43;100488.30;427420;123;922723;-72
2021/08/01 03:41:36;;;;;;;;;;;;;;;21.96;63.42;100482.19;427346;122;922785;-72
2021/08/01 03:42:41;;;;;;;;;;;;;;;21.98;63.34;100486.34;428723;123;922700;-73
2021/08/01 03:43:45;;;;;;;;;;;;;;;22.03;63.19;100491.84;427488;122;922810;-72
2021/08/01 03:44:55;;;;;;;;;;;;;;;22.18;62.88;100490.02;489708;107;922703;-72
2021/08/01 03:45:58;;;;;;;;;;;;;;;22.10;62.68;100485.95;483504;107;921787;-72
2021/08/01 03:47:02;;;;;;;;;;;;;;;22.13;62.52;100488.13;482590;108;921484;-72
2021/08/01 03:48:05;;;;;;;;;;;;;;;22.16;62.46;100497.83;483144;107;921547;-72
2021/08/01 03:49:09;;;;;;;;;;;;;;;22.16;62.37;100493.11;480825;108;921493;-72
2021/08/01 03:50:12;;;;;;;;;;;;;;;22.18;62.34;100504.73;482372;109;921493;-70
2021/08/01 03:51:15;;;;;;;;;;;;;;;22.19;62.31;100500.01;481555;109;921568;-73
2021/08/01 03:52:18;;;;;;;;;;;;;;;22.20;62.30;100493.34;480637;109;921852;-71
2021/08/01 03:53:22;;;;;;;;;;;;;;;22.22;62.22;100493.88;481180;109;921429;-73
2021/08/01 03:54:25;;;;;;;;;;;;;;;22.24;62.16;100503.56;481220;109;921604;-73
2021/08/01 03:55:28;;;;;;;;;;;;;;;22.26;62.17;100498.55;481057;109;921518;-72
2021/08/01 03:56:31;;;;;;;;;;;;;;;22.29;62.10;100499.89;478510;109;921672;-72
2021/08/01 03:57:34;;;;;;;;;;;;;;;22.33;62.07;100500.95;480165;108;921936;-72
2021/08/01 03:58:38;;;;;;;;;;;;;;;22.36;62.01;100492.88;480717;109;922074;-72
2021/08/01 03:59:41;;;;;;;;;;;;;;;22.39;61.93;100497.83;479570;108;921466;-72
2021/08/01 04:00:47;;;;;;;;;;;;;;;22.41;61.84;100500.31;481876;108;921497;-71
2021/08/01 04:01:50;;;;;;;;;;;;;;;22.43;61.75;100498.91;481311;109;921428;-72
2021/08/01 04:02:54;;;;;;;;;;;;;;;22.46;61.68;100501.09;484869;109;921665;-73
2021/08/01 04:03:57;;;;;;;;;;;;;;;22.50;61.63;100497.70;480461;109;921743;-72
2021/08/01 04:05:01;;;;;;;;;;;;;;;22.52;61.59;100499.08;482194;108;922786;-71
2021/08/01 04:06:05;;;;;;;;;;;;;;;22.55;61.52;100508.79;481908;109;922648;-73
2021/08/01 04:07:09;;;;;;;;;;;;;;;22.58;61.45;100511.80;482802;109;922626;-75
2021/08/01 04:08:13;;;;;;;;;;;;;;;22.60;61.46;100515.11;479903;109;922651;-72
2021/08/01 04:09:16;;;;;;;;;;;;;;;22.63;61.42;100510.90;480849;109;922672;-72
2021/08/01 04:10:20;;;;;;;;;;;;;;;22.64;61.38;100505.05;480117;109;922723;-72
2021/08/01 04:11:24;;;;;;;;;;;;;;;22.68;61.24;100508.05;482271;108;922639;-72
2021/08/01 04:12:28;;;;;;;;;;;;;;;22.71;61.14;100504.70;479607;109;923050;-73
2021/08/01 04:13:33;;;;;;;;;;;;;;;22.74;61.07;100506.91;480775;109;921526;-71
2021/08/01 04:14:37;;;;;;;;;;;;;;;22.75;61.01;100509.39;482076;109;922698;-72
2021/08/01 04:15:42;;;;;;;;;;;;;;;22.78;60.96;100508.78;480350;109;922657;-72
2021/08/01 04:16:46;;;;;;;;;;;;;;;22.82;60.90;100509.04;479742;109;922715;-72
2021/08/01 04:17:50;;;;;;;;;;;;;;;22.84;60.83;100506.77;479516;109;922623;-74
2021/08/01 04:18:53;;;;;;;;;;;;;;;22.86;60.70;100510.09;479585;109;923154;-71
2021/08/01 04:19:57;;;;;;;;;;;;;;;22.88;60.65;100514.20;482694;109;923771;-72
2021/08/01 04:21:03;;;;;;;;;;;;;;;22.91;60.64;100506.41;481459;109;922574;-71
2021/08/01 04:22:07;;;;;;;;;;;;;;;22.93;60.63;100513.34;481904;108;922715;-72
2021/08/01 04:23:11;;;;;;;;;;;;;;;22.96;60.64;100509.12;482610;109;922550;-73
2021/08/01 04:24:14;;;;;;;;;;;;;;;22.98;60.58;100518.00;481117;109;923123;-72
2021/08/01 04:25:18;;;;;;;;;;;;;;;23.00;60.47;100513.78;481793;109;922641;-73
2021/08/01 04:26:22;;;;;;;;;;;;;;;23.02;60.37;100516.27;480379;109;922823;-71
2021/08/01 04:27:25;;;;;;;;;;;;;;;23.02;60.32;100514.31;481280;109;922670;-72
2021/08/01 04:28:29;;;;;;;;;;;;;;;23.04;60.31;100511.25;481192;108;922680;-72
2021/08/01 04:29:33;;;;;;;;;;;;;;;23.04;60.32;100519.59;479395;108;922714;-72
2021/08/01 04:30:36;;;;;;;;;;;;;;;23.05;60.37;100515.66;480373;109;921517;-71
2021/08/01 04:31:39;;;;;;;;;;;;;;;23.04;60.42;100511.25;484432;108;922669;-73
2021/08/01 04:32:43;;;;;;;;;;;;;;;23.04;60.53;100511.25;481225;109;924529;-71
2021/08/01 04:33:47;;;;;;;;;;;;;;;23.04;60.77;100511.25;480832;109;922602;-73
2021/08/01 04:34:51;;;;;;;;;;;;;;;23.05;60.78;100510.92;480626;109;921961;-72
2021/08/01 04:35:55;;;;;;;;;;;;;;;23.06;60.77;100514.53;481137;109;923234;-73
2021/08/01 04:36:59;;;;;;;;;;;;;;;23.05;60.83;100515.66;479702;109;922714;-71
2021/08/01 04:38:02;;;;;;;;;;;;;;;23.05;60.85;100510.92;479876;109;922705;-74
2021/08/01 04:39:06;;;;;;;;;;;;;;;23.05;60.81;100515.66;478748;109;922637;-73
2021/08/01 04:40:10;;;;;;;;;;;;;;;23.04;60.88;100514.86;479285;109;923096;-71
2021/08/01 04:41:13;;;;;;;;;;;;;;;23.04;60.88;100512.08;480373;109;922738;-72
2021/08/01 04:42:17;;;;;;;;;;;;;;;23.04;60.95;100516.81;481466;109;922747;-72
2021/08/01 04:43:20;;;;;;;;;;;;;;;23.04;61.15;100516.81;480944;109;922676;-72
2021/08/01 04:44:24;;;;;;;;;;;;;;;23.04;61.14;100523.20;481516;108;922685;-71
2021/08/01 04:45:27;;;;;;;;;;;;;;;23.06;61.02;100520.92;470921;111;922658;-71
2021/08/01 04:46:31;;;;;;;;;;;;;;;23.08;60.99;100517.86;471026;111;922670;-74
2021/08/01 04:47:35;;;;;;;;;;;;;;;23.10;60.88;100519.20;470720;111;921630;-72
2021/08/01 04:48:38;;;;;;;;;;;;;;;23.14;60.82;100517.49;470791;111;921588;-72
2021/08/01 04:49:42;;;;;;;;;;;;;;;23.18;60.67;100518.54;470601;112;921340;-72
2021/08/01 04:50:45;;;;;;;;;;;;;;;23.23;60.55;100520.41;470463;111;921451;-72
2021/08/01 04:51:48;;;;;;;;;;;;;;;23.28;60.46;100523.12;470129;112;921516;-73
2021/08/01 04:52:52;;;;;;;;;;;;;;;23.33;60.36;100523.05;470749;112;921402;-73
2021/08/01 04:53:56;;;;;;;;;;;;;;;23.38;60.32;100514.62;470752;112;921452;-73
2021/08/01 04:54:59;;;;;;;;;;;;;;;23.43;60.34;100520.10;470986;111;921625;-72
2021/08/01 04:56:02;;;;;;;;;;;;;;;23.47;60.38;100514.81;469415;112;921750;-71
2021/08/01 04:57:05;;;;;;;;;;;;;;;23.50;60.25;100515.02;467539;112;921460;-72
2021/08/01 04:58:09;;;;;;;;;;;;;;;23.53;60.21;100520.00;469730;112;922093;-72
2021/08/01 04:59:12;;;;;;;;;;;;;;;23.56;60.15;100513.81;469607;111;921574;-72
2021/08/01 05:00:16;;;;;;;;;;;;;;;23.59;60.23;100518.80;469255;112;921708;-72
2021/08/01 05:01:19;;;;;;;;;;;;;;;23.63;60.21;100519.01;469283;112;921393;-74
2021/08/01 05:02:23;;;;;;;;;;;;;;;23.65;60.05;100520.34;470759;111;921378;-72
2021/08/01 05:03:26;;;;;;;;;;;;;;;23.67;60.08;100515.31;472210;112;921531;-72
2021/08/01 05:04:30;;;;;;;;;;;;;;;23.70;60.14;100513.89;471753;111;923174;-73
2021/08/01 05:05:40;;;;;;;;;;;;;;;23.72;60.12;100513.56;469469;112;922724;-73
2021/08/01 05:06:43;;;;;;;;;;;;;;;23.74;60.12;100514.09;470416;112;921568;-72
2021/08/01 05:07:47;;;;;;;;;;;;;;;23.77;60.16;100510.69;470972;111;922831;-70
2021/08/01 05:08:50;;;;;;;;;;;;;;;23.79;60.12;100512.05;470600;112;922667;-72
2021/08/01 05:09:54;;;;;;;;;;;;;;;23.82;60.10;100507.84;469837;112;923060;-72
2021/08/01 05:10:58;;;;;;;;;;;;;;;23.84;60.14;100508.35;469320;110;923173;-71
2021/08/01 05:12:01;;;;;;;;;;;;;;;23.86;60.10;100514.45;469358;111;921923;-71
2021/08/01 05:13:06;;;;;;;;;;;;;;;23.89;60.01;100513.83;470228;112;921439;-73
2021/08/01 05:14:09;;;;;;;;;;;;;;;23.92;60.03;100507.67;470820;111;923088;-72
2021/08/01 05:15:13;;;;;;;;;;;;;;;23.93;60.03;100504.55;470390;112;922745;-71
2021/08/01 05:16:18;;;;;;;;;;;;;;;23.94;60.06;100503.43;469312;111;922616;-72
2021/08/01 05:17:22;;;;;;;;;;;;;;;23.98;60.10;100503.66;469537;112;921611;-71
2021/08/01 05:18:25;;;;;;;;;;;;;;;24.01;60.06;100497.47;468486;112;922684;-72
2021/08/01 05:19:29;;;;;;;;;;;;;;;24.04;60.08;100502.41;470679;111;922598;-72
2021/08/01 05:20:33;;;;;;;;;;;;;;;24.07;60.11;100502.65;468921;110;922724;-72
2021/08/01 05:21:36;;;;;;;;;;;;;;;24.11;60.11;100505.64;468079;112;923413;-72
2021/08/01 05:22:40;;;;;;;;;;;;;;;24.13;59.95;100500.59;468647;112;922569;-72
2021/08/01 05:23:44;;;;;;;;;;;;;;;24.16;59.95;100499.14;471616;112;922589;-72
2021/08/01 05:24:47;;;;;;;;;;;;;;;24.20;59.93;100503.84;469907;112;922686;-71
2021/08/01 05:25:51;;;;;;;;;;;;;;;24.23;59.97;100494.86;470131;112;922711;-72
2021/08/01 05:26:55;;;;;;;;;;;;;;;24.27;60.04;100501.45;468192;112;922625;-70
2021/08/01 05:27:59;;;;;;;;;;;;;;;24.31;60.08;100504.48;469801;110;924157;-72
2021/08/01 05:29:02;;;;;;;;;;;;;;;24.34;60.09;100493.53;462913;112;922616;-70
2021/08/01 05:30:06;;;;;;;;;;;;;;;24.38;59.89;100500.12;462101;114;922758;-72
2021/08/01 05:31:10;;;;;;;;;;;;;;;24.41;59.69;100499.53;471401;112;923043;-72